sensor_id;sensor_type;location;lat;lon;timestamp;temperature;humidity
27492;DHT22;14927;51.210;6.838;2022-09-01T00:00:16;23.50;41.90
27492;DHT22;14927;51.210;6.838;2022-09-01T00:03:01;23.50;42.00
27492;DHT22;14927;51.210;6.838;2022-09-01T00:05:46;23.40;41.90
27492;DHT22;14927;51.210;6.838;2022-09-01T00:08:33;23.40;42.10
27492;DHT22;14927;51.210;6.838;2022-09-01T00:11:20;23.40;42.20
27492;DHT22;14927;51.210;6.838;2022-09-01T00:14:06;23.40;42.20
27492;DHT22;14927;51.210;6.838;2022-09-01T00:16:52;23.40;42.20
27492;DHT22;14927;51.210;6.838;2022-09-01T00:19:37;23.40;42.30
27492;DHT22;14927;51.210;6.838;2022-09-01T00:22:23;23.30;42.40
27492;DHT22;14927;51.210;6.838;2022-09-01T00:25:08;23.30;42.40
27492;DHT22;14927;51.210;6.838;2022-09-01T00:27:53;23.30;42.60
27492;DHT22;14927;51.210;6.838;2022-09-01T00:30:42;23.30;42.50
27492;DHT22;14927;51.210;6.838;2022-09-01T00:33:27;23.30;42.60
27492;DHT22;14927;51.210;6.838;2022-09-01T00:36:13;23.30;43.00
27492;DHT22;14927;51.210;6.838;2022-09-01T00:38:58;23.20;43.00
27492;DHT22;14927;51.210;6.838;2022-09-01T00:41:44;23.20;43.10
27492;DHT22;14927;51.210;6.838;2022-09-01T00:44:30;23.20;43.10
27492;DHT22;14927;51.210;6.838;2022-09-01T00:47:14;23.10;43.20
27492;DHT22;14927;51.210;6.838;2022-09-01T00:49:59;23.10;43.30
27492;DHT22;14927;51.210;6.838;2022-09-01T00:52:49;23.10;43.50
27492;DHT22;14927;51.210;6.838;2022-09-01T00:55:36;23.10;43.70
27492;DHT22;14927;51.210;6.838;2022-09-01T00:58:21;23.10;43.60
27492;DHT22;14927;51.210;6.838;2022-09-01T01:01:08;23.10;43.80
27492;DHT22;14927;51.210;6.838;2022-09-01T01:03:53;23.00;43.70
27492;DHT22;14927;51.210;6.838;2022-09-01T01:06:38;23.00;43.90
27492;DHT22;14927;51.210;6.838;2022-09-01T01:09:26;23.00;43.90
27492;DHT22;14927;51.210;6.838;2022-09-01T01:12:15;23.00;44.30
27492;DHT22;14927;51.210;6.838;2022-09-01T01:15:01;22.90;44.30
27492;DHT22;14927;51.210;6.838;2022-09-01T01:17:47;23.00;44.40
27492;DHT22;14927;51.210;6.838;2022-09-01T01:20:32;22.90;44.30
27492;DHT22;14927;51.210;6.838;2022-09-01T01:23:42;22.90;45.20
27492;DHT22;14927;51.210;6.838;2022-09-01T01:26:57;22.90;44.60
27492;DHT22;14927;51.210;6.838;2022-09-01T01:29:43;22.90;44.50
27492;DHT22;14927;51.210;6.838;2022-09-01T01:32:28;22.90;44.60
27492;DHT22;14927;51.210;6.838;2022-09-01T01:35:15;22.90;44.90
27492;DHT22;14927;51.210;6.838;2022-09-01T01:38:01;22.80;44.80
27492;DHT22;14927;51.210;6.838;2022-09-01T01:40:50;22.80;44.90
27492;DHT22;14927;51.210;6.838;2022-09-01T01:43:37;22.90;44.70
27492;DHT22;14927;51.210;6.838;2022-09-01T01:46:21;22.80;45.50
27492;DHT22;14927;51.210;6.838;2022-09-01T01:49:06;22.80;45.60
27492;DHT22;14927;51.210;6.838;2022-09-01T01:51:52;22.80;45.00
27492;DHT22;14927;51.210;6.838;2022-09-01T01:54:39;22.80;45.10
27492;DHT22;14927;51.210;6.838;2022-09-01T01:57:24;22.80;45.40
27492;DHT22;14927;51.210;6.838;2022-09-01T02:00:12;22.80;45.40
27492;DHT22;14927;51.210;6.838;2022-09-01T02:03:02;22.70;45.30
27492;DHT22;14927;51.210;6.838;2022-09-01T02:05:50;22.70;45.30
27492;DHT22;14927;51.210;6.838;2022-09-01T02:08:37;22.70;45.50
27492;DHT22;14927;51.210;6.838;2022-09-01T02:11:25;22.70;45.50
27492;DHT22;14927;51.210;6.838;2022-09-01T02:14:10;22.70;45.50
27492;DHT22;14927;51.210;6.838;2022-09-01T02:16:56;22.70;45.70
27492;DHT22;14927;51.210;6.838;2022-09-01T02:19:49;22.60;45.70
27492;DHT22;14927;51.210;6.838;2022-09-01T02:22:40;22.60;46.00
27492;DHT22;14927;51.210;6.838;2022-09-01T02:25:27;22.60;45.80
27492;DHT22;14927;51.210;6.838;2022-09-01T02:28:14;22.60;46.00
27492;DHT22;14927;51.210;6.838;2022-09-01T02:30:59;22.50;46.10
27492;DHT22;14927;51.210;6.838;2022-09-01T02:33:45;22.50;46.10
27492;DHT22;14927;51.210;6.838;2022-09-01T02:36:31;22.50;46.20
27492;DHT22;14927;51.210;6.838;2022-09-01T02:39:24;22.50;46.20
27492;DHT22;14927;51.210;6.838;2022-09-01T02:42:13;22.40;46.40
27492;DHT22;14927;51.210;6.838;2022-09-01T02:44:58;22.40;46.30
27492;DHT22;14927;51.210;6.838;2022-09-01T02:47:43;22.40;46.50
27492;DHT22;14927;51.210;6.838;2022-09-01T02:50:29;22.40;46.70
27492;DHT22;14927;51.210;6.838;2022-09-01T02:53:16;22.30;46.80
27492;DHT22;14927;51.210;6.838;2022-09-01T02:56:06;22.30;46.80
27492;DHT22;14927;51.210;6.838;2022-09-01T02:58:57;22.20;46.80
27492;DHT22;14927;51.210;6.838;2022-09-01T03:01:43;22.30;46.80
27492;DHT22;14927;51.210;6.838;2022-09-01T03:04:31;22.20;46.70
27492;DHT22;14927;51.210;6.838;2022-09-01T03:07:18;22.20;46.90
27492;DHT22;14927;51.210;6.838;2022-09-01T03:10:07;22.20;47.00
27492;DHT22;14927;51.210;6.838;2022-09-01T03:12:53;22.20;47.10
27492;DHT22;14927;51.210;6.838;2022-09-01T03:15:39;22.10;47.20
27492;DHT22;14927;51.210;6.838;2022-09-01T03:18:24;22.10;47.20
27492;DHT22;14927;51.210;6.838;2022-09-01T03:21:10;22.10;47.10
27492;DHT22;14927;51.210;6.838;2022-09-01T03:23:59;22.20;47.30
27492;DHT22;14927;51.210;6.838;2022-09-01T03:26:46;22.10;47.20
27492;DHT22;14927;51.210;6.838;2022-09-01T03:29:33;22.10;47.20
27492;DHT22;14927;51.210;6.838;2022-09-01T03:32:18;22.10;47.40
27492;DHT22;14927;51.210;6.838;2022-09-01T03:35:03;22.10;47.40
27492;DHT22;14927;51.210;6.838;2022-09-01T03:37:48;22.10;47.50
27492;DHT22;14927;51.210;6.838;2022-09-01T03:40:34;22.00;47.40
27492;DHT22;14927;51.210;6.838;2022-09-01T03:43:20;22.00;47.40
27492;DHT22;14927;51.210;6.838;2022-09-01T03:46:08;22.00;47.50
27492;DHT22;14927;51.210;6.838;2022-09-01T03:48:55;22.00;47.50
27492;DHT22;14927;51.210;6.838;2022-09-01T03:51:50;22.00;47.40
27492;DHT22;14927;51.210;6.838;2022-09-01T03:54:44;22.00;47.50
27492;DHT22;14927;51.210;6.838;2022-09-01T03:57:29;22.00;47.70
27492;DHT22;14927;51.210;6.838;2022-09-01T04:00:14;22.00;47.80
27492;DHT22;14927;51.210;6.838;2022-09-01T04:03:04;22.00;47.90
27492;DHT22;14927;51.210;6.838;2022-09-01T04:05:51;21.90;47.80
27492;DHT22;14927;51.210;6.838;2022-09-01T04:08:36;21.90;47.80
27492;DHT22;14927;51.210;6.838;2022-09-01T04:11:22;21.80;47.70
27492;DHT22;14927;51.210;6.838;2022-09-01T04:14:09;21.80;47.70
27492;DHT22;14927;51.210;6.838;2022-09-01T04:16:54;21.80;47.70
27492;DHT22;14927;51.210;6.838;2022-09-01T04:19:58;21.80;47.70
27492;DHT22;14927;51.210;6.838;2022-09-01T04:22:42;21.80;47.90
27492;DHT22;14927;51.210;6.838;2022-09-01T04:25:30;21.80;47.80
27492;DHT22;14927;51.210;6.838;2022-09-01T04:28:17;21.80;47.80
27492;DHT22;14927;51.210;6.838;2022-09-01T04:31:10;21.80;47.90
27492;DHT22;14927;51.210;6.838;2022-09-01T04:34:01;21.70;47.80
27492;DHT22;14927;51.210;6.838;2022-09-01T04:36:46;21.80;47.80
27492;DHT22;14927;51.210;6.838;2022-09-01T04:39:31;21.70;47.80
27492;DHT22;14927;51.210;6.838;2022-09-01T04:42:17;21.70;47.80
27492;DHT22;14927;51.210;6.838;2022-09-01T04:45:08;21.70;47.70
27492;DHT22;14927;51.210;6.838;2022-09-01T04:47:54;21.70;47.70
27492;DHT22;14927;51.210;6.838;2022-09-01T04:50:39;21.70;48.30
27492;DHT22;14927;51.210;6.838;2022-09-01T04:53:24;21.70;47.70
27492;DHT22;14927;51.210;6.838;2022-09-01T04:56:10;21.60;47.60
27492;DHT22;14927;51.210;6.838;2022-09-01T04:58:55;21.60;47.70
27492;DHT22;14927;51.210;6.838;2022-09-01T05:01:40;21.60;47.70
27492;DHT22;14927;51.210;6.838;2022-09-01T05:04:31;21.60;47.80
27492;DHT22;14927;51.210;6.838;2022-09-01T05:07:16;21.60;47.70
27492;DHT22;14927;51.210;6.838;2022-09-01T05:10:03;21.60;47.90
27492;DHT22;14927;51.210;6.838;2022-09-01T05:12:48;21.60;47.80
27492;DHT22;14927;51.210;6.838;2022-09-01T05:15:37;21.60;47.80
27492;DHT22;14927;51.210;6.838;2022-09-01T05:18:23;21.60;47.70
27492;DHT22;14927;51.210;6.838;2022-09-01T05:21:08;21.60;47.80
27492;DHT22;14927;51.210;6.838;2022-09-01T05:23:59;21.60;47.80
27492;DHT22;14927;51.210;6.838;2022-09-01T05:26:45;21.60;47.90
27492;DHT22;14927;51.210;6.838;2022-09-01T05:29:34;21.60;47.90
27492;DHT22;14927;51.210;6.838;2022-09-01T05:32:21;21.60;47.80
27492;DHT22;14927;51.210;6.838;2022-09-01T05:35:09;21.60;47.90
27492;DHT22;14927;51.210;6.838;2022-09-01T05:37:54;21.60;47.90
27492;DHT22;14927;51.210;6.838;2022-09-01T05:40:40;21.60;47.90
27492;DHT22;14927;51.210;6.838;2022-09-01T05:43:25;21.60;47.90
27492;DHT22;14927;51.210;6.838;2022-09-01T05:46:11;21.60;47.90
27492;DHT22;14927;51.210;6.838;2022-09-01T05:48:59;21.60;47.90
27492;DHT22;14927;51.210;6.838;2022-09-01T05:51:48;21.60;47.90
27492;DHT22;14927;51.210;6.838;2022-09-01T05:54:34;21.60;47.90
27492;DHT22;14927;51.210;6.838;2022-09-01T05:57:19;21.60;47.90
27492;DHT22;14927;51.210;6.838;2022-09-01T06:00:07;21.60;47.90
27492;DHT22;14927;51.210;6.838;2022-09-01T06:02:57;21.60;48.00
27492;DHT22;14927;51.210;6.838;2022-09-01T06:05:42;21.60;48.00
27492;DHT22;14927;51.210;6.838;2022-09-01T06:08:31;21.70;48.00
27492;DHT22;14927;51.210;6.838;2022-09-01T06:11:17;21.70;48.10
27492;DHT22;14927;51.210;6.838;2022-09-01T06:14:03;21.70;48.10
27492;DHT22;14927;51.210;6.838;2022-09-01T06:16:49;21.70;48.10
27492;DHT22;14927;51.210;6.838;2022-09-01T06:19:37;21.80;48.10
27492;DHT22;14927;51.210;6.838;2022-09-01T06:22:25;21.80;47.90
27492;DHT22;14927;51.210;6.838;2022-09-01T06:25:11;21.80;47.80
27492;DHT22;14927;51.210;6.838;2022-09-01T06:27:57;21.90;47.70
27492;DHT22;14927;51.210;6.838;2022-09-01T06:30:43;21.90;48.30
27492;DHT22;14927;51.210;6.838;2022-09-01T06:33:29;21.90;47.60
27492;DHT22;14927;51.210;6.838;2022-09-01T06:36:14;22.00;47.60
27492;DHT22;14927;51.210;6.838;2022-09-01T06:38:59;22.00;47.60
27492;DHT22;14927;51.210;6.838;2022-09-01T06:41:48;21.90;47.40
27492;DHT22;14927;51.210;6.838;2022-09-01T06:44:36;22.10;47.40
27492;DHT22;14927;51.210;6.838;2022-09-01T06:47:23;22.10;47.40
27492;DHT22;14927;51.210;6.838;2022-09-01T06:50:09;22.20;47.20
27492;DHT22;14927;51.210;6.838;2022-09-01T06:52:58;22.20;47.10
27492;DHT22;14927;51.210;6.838;2022-09-01T06:55:54;22.30;47.00
27492;DHT22;14927;51.210;6.838;2022-09-01T06:58:43;22.40;47.00
27492;DHT22;14927;51.210;6.838;2022-09-01T07:01:31;22.40;46.80
27492;DHT22;14927;51.210;6.838;2022-09-01T07:04:16;22.50;46.60
27492;DHT22;14927;51.210;6.838;2022-09-01T07:07:04;22.50;46.50
27492;DHT22;14927;51.210;6.838;2022-09-01T07:09:50;22.60;46.40
27492;DHT22;14927;51.210;6.838;2022-09-01T07:12:35;22.60;46.30
27492;DHT22;14927;51.210;6.838;2022-09-01T07:15:20;22.70;46.30
27492;DHT22;14927;51.210;6.838;2022-09-01T07:18:05;22.70;46.10
27492;DHT22;14927;51.210;6.838;2022-09-01T07:20:51;22.80;46.10
27492;DHT22;14927;51.210;6.838;2022-09-01T07:23:36;22.80;45.90
27492;DHT22;14927;51.210;6.838;2022-09-01T07:26:22;22.90;45.90
27492;DHT22;14927;51.210;6.838;2022-09-01T07:29:08;22.90;45.90
27492;DHT22;14927;51.210;6.838;2022-09-01T07:31:53;23.00;45.80
27492;DHT22;14927;51.210;6.838;2022-09-01T07:34:39;23.10;45.90
27492;DHT22;14927;51.210;6.838;2022-09-01T07:37:23;23.10;46.50
27492;DHT22;14927;51.210;6.838;2022-09-01T07:40:12;23.20;45.60
27492;DHT22;14927;51.210;6.838;2022-09-01T07:43:06;23.20;45.40
27492;DHT22;14927;51.210;6.838;2022-09-01T07:45:54;23.50;45.30
27492;DHT22;14927;51.210;6.838;2022-09-01T07:48:42;23.30;45.20
27492;DHT22;14927;51.210;6.838;2022-09-01T07:51:28;23.40;45.00
27492;DHT22;14927;51.210;6.838;2022-09-01T07:54:14;23.50;44.70
27492;DHT22;14927;51.210;6.838;2022-09-01T07:56:58;23.50;44.50
27492;DHT22;14927;51.210;6.838;2022-09-01T07:59:45;23.60;44.20
27492;DHT22;14927;51.210;6.838;2022-09-01T08:02:29;23.60;44.00
27492;DHT22;14927;51.210;6.838;2022-09-01T08:05:17;23.70;43.60
27492;DHT22;14927;51.210;6.838;2022-09-01T08:08:05;23.80;43.40
27492;DHT22;14927;51.210;6.838;2022-09-01T08:10:50;23.90;43.10
27492;DHT22;14927;51.210;6.838;2022-09-01T08:13:36;23.90;42.80
27492;DHT22;14927;51.210;6.838;2022-09-01T08:16:24;24.00;42.50
27492;DHT22;14927;51.210;6.838;2022-09-01T08:19:10;24.10;42.00
27492;DHT22;14927;51.210;6.838;2022-09-01T08:21:54;24.10;41.60
27492;DHT22;14927;51.210;6.838;2022-09-01T08:24:39;24.20;40.80
27492;DHT22;14927;51.210;6.838;2022-09-01T08:27:24;24.20;40.20
27492;DHT22;14927;51.210;6.838;2022-09-01T08:30:10;24.30;40.00
27492;DHT22;14927;51.210;6.838;2022-09-01T08:32:59;24.40;40.30
27492;DHT22;14927;51.210;6.838;2022-09-01T08:35:47;24.40;39.90
27492;DHT22;14927;51.210;6.838;2022-09-01T08:38:32;24.50;39.70
27492;DHT22;14927;51.210;6.838;2022-09-01T08:47:53;24.70;38.10
27492;DHT22;14927;51.210;6.838;2022-09-01T08:50:40;24.80;38.20
27492;DHT22;14927;51.210;6.838;2022-09-01T08:53:33;24.80;37.80
27492;DHT22;14927;51.210;6.838;2022-09-01T08:56:22;24.90;36.90
27492;DHT22;14927;51.210;6.838;2022-09-01T08:59:07;25.00;36.90
27492;DHT22;14927;51.210;6.838;2022-09-01T09:02:26;25.00;35.90
27492;DHT22;14927;51.210;6.838;2022-09-01T09:09:01;25.20;33.60
27492;DHT22;14927;51.210;6.838;2022-09-01T09:12:15;25.20;32.90
27492;DHT22;14927;51.210;6.838;2022-09-01T09:27:51;25.60;31.90
27492;DHT22;14927;51.210;6.838;2022-09-01T09:30:35;25.70;32.40
27492;DHT22;14927;51.210;6.838;2022-09-01T09:33:36;25.80;32.30
27492;DHT22;14927;51.210;6.838;2022-09-01T09:36:33;25.80;31.00
27492;DHT22;14927;51.210;6.838;2022-09-01T09:39:20;25.90;31.50
27492;DHT22;14927;51.210;6.838;2022-09-01T09:42:09;26.00;31.60
27492;DHT22;14927;51.210;6.838;2022-09-01T09:44:56;26.00;31.10
27492;DHT22;14927;51.210;6.838;2022-09-01T09:47:44;26.10;31.20
27492;DHT22;14927;51.210;6.838;2022-09-01T09:50:32;26.10;30.90
27492;DHT22;14927;51.210;6.838;2022-09-01T09:56:21;26.30;32.40
27492;DHT22;14927;51.210;6.838;2022-09-01T09:59:23;26.40;31.10
27492;DHT22;14927;51.210;6.838;2022-09-01T10:02:20;26.40;30.90
27492;DHT22;14927;51.210;6.838;2022-09-01T10:08:41;26.60;30.50
27492;DHT22;14927;51.210;6.838;2022-09-01T10:11:39;26.70;30.50
27492;DHT22;14927;51.210;6.838;2022-09-01T10:14:37;26.80;30.50
27492;DHT22;14927;51.210;6.838;2022-09-01T10:17:37;26.80;30.30
27492;DHT22;14927;51.210;6.838;2022-09-01T10:20:30;26.90;30.20
27492;DHT22;14927;51.210;6.838;2022-09-01T10:23:16;27.00;30.10
27492;DHT22;14927;51.210;6.838;2022-09-01T10:26:14;27.10;30.40
27492;DHT22;14927;51.210;6.838;2022-09-01T10:31:51;27.20;30.10
27492;DHT22;14927;51.210;6.838;2022-09-01T10:34:38;27.20;30.00
27492;DHT22;14927;51.210;6.838;2022-09-01T10:37:23;27.30;30.00
27492;DHT22;14927;51.210;6.838;2022-09-01T10:40:14;27.40;29.90
27492;DHT22;14927;51.210;6.838;2022-09-01T10:43:34;27.40;30.10
27492;DHT22;14927;51.210;6.838;2022-09-01T10:55:38;27.80;28.90
27492;DHT22;14927;51.210;6.838;2022-09-01T11:01:14;27.90;30.30
27492;DHT22;14927;51.210;6.838;2022-09-01T11:03:58;28.00;29.50
27492;DHT22;14927;51.210;6.838;2022-09-01T11:13:10;28.20;28.90
27492;DHT22;14927;51.210;6.838;2022-09-01T11:19:31;28.40;28.80
27492;DHT22;14927;51.210;6.838;2022-09-01T11:22:23;28.50;28.10
27492;DHT22;14927;51.210;6.838;2022-09-01T11:25:44;28.50;28.40
27492;DHT22;14927;51.210;6.838;2022-09-01T11:28:36;28.60;28.40
27492;DHT22;14927;51.210;6.838;2022-09-01T11:31:28;28.70;28.30
27492;DHT22;14927;51.210;6.838;2022-09-01T11:34:19;28.70;28.10
27492;DHT22;14927;51.210;6.838;2022-09-01T11:37:11;28.80;28.20
27492;DHT22;14927;51.210;6.838;2022-09-01T11:40:01;28.90;28.10
27492;DHT22;14927;51.210;6.838;2022-09-01T11:42:47;28.90;28.10
27492;DHT22;14927;51.210;6.838;2022-09-01T11:45:59;29.00;28.20
27492;DHT22;14927;51.210;6.838;2022-09-01T11:48:49;29.10;27.70
27492;DHT22;14927;51.210;6.838;2022-09-01T11:51:45;29.30;27.90
27492;DHT22;14927;51.210;6.838;2022-09-01T11:54:39;29.40;27.20
27492;DHT22;14927;51.210;6.838;2022-09-01T11:57:31;29.50;27.40
27492;DHT22;14927;51.210;6.838;2022-09-01T12:00:28;29.60;27.30
27492;DHT22;14927;51.210;6.838;2022-09-01T12:03:26;29.70;27.10
27492;DHT22;14927;51.210;6.838;2022-09-01T12:06:20;29.80;27.00
27492;DHT22;14927;51.210;6.838;2022-09-01T12:09:07;29.90;27.20
27492;DHT22;14927;51.210;6.838;2022-09-01T12:11:51;30.00;27.70
27492;DHT22;14927;51.210;6.838;2022-09-01T12:14:36;30.10;27.40
27492;DHT22;14927;51.210;6.838;2022-09-01T12:17:20;30.30;27.10
27492;DHT22;14927;51.210;6.838;2022-09-01T12:20:25;30.50;26.70
27492;DHT22;14927;51.210;6.838;2022-09-01T12:23:22;30.70;26.40
27492;DHT22;14927;51.210;6.838;2022-09-01T12:26:13;30.90;28.00
27492;DHT22;14927;51.210;6.838;2022-09-01T12:28:59;31.10;26.40
27492;DHT22;14927;51.210;6.838;2022-09-01T12:31:46;31.30;26.20
27492;DHT22;14927;51.210;6.838;2022-09-01T12:34:58;31.50;25.90
27492;DHT22;14927;51.210;6.838;2022-09-01T12:37:45;31.70;25.60
27492;DHT22;14927;51.210;6.838;2022-09-01T12:40:33;31.90;25.60
27492;DHT22;14927;51.210;6.838;2022-09-01T12:43:33;32.20;25.10
27492;DHT22;14927;51.210;6.838;2022-09-01T12:46:40;32.40;24.70
27492;DHT22;14927;51.210;6.838;2022-09-01T12:49:46;32.50;24.30
27492;DHT22;14927;51.210;6.838;2022-09-01T12:52:35;32.70;24.60
27492;DHT22;14927;51.210;6.838;2022-09-01T12:55:36;32.80;24.30
27492;DHT22;14927;51.210;6.838;2022-09-01T12:58:23;32.90;24.80
27492;DHT22;14927;51.210;6.838;2022-09-01T13:01:24;33.00;24.30
27492;DHT22;14927;51.210;6.838;2022-09-01T13:07:07;33.40;23.70
27492;DHT22;14927;51.210;6.838;2022-09-01T13:09:52;33.50;23.70
27492;DHT22;14927;51.210;6.838;2022-09-01T13:12:41;33.60;24.00
27492;DHT22;14927;51.210;6.838;2022-09-01T13:15:26;33.70;23.60
27492;DHT22;14927;51.210;6.838;2022-09-01T13:18:11;33.90;23.70
27492;DHT22;14927;51.210;6.838;2022-09-01T13:20:56;34.10;23.30
27492;DHT22;14927;51.210;6.838;2022-09-01T13:23:42;34.30;23.20
27492;DHT22;14927;51.210;6.838;2022-09-01T13:26:27;34.40;23.00
27492;DHT22;14927;51.210;6.838;2022-09-01T13:29:14;34.40;22.70
27492;DHT22;14927;51.210;6.838;2022-09-01T13:32:00;34.50;23.10
27492;DHT22;14927;51.210;6.838;2022-09-01T13:34:48;34.60;22.90
27492;DHT22;14927;51.210;6.838;2022-09-01T13:37:33;34.70;22.50
27492;DHT22;14927;51.210;6.838;2022-09-01T13:40:20;34.90;22.40
27492;DHT22;14927;51.210;6.838;2022-09-01T13:43:05;35.10;22.20
27492;DHT22;14927;51.210;6.838;2022-09-01T13:45:51;35.40;22.40
27492;DHT22;14927;51.210;6.838;2022-09-01T13:48:36;35.70;22.10
27492;DHT22;14927;51.210;6.838;2022-09-01T13:51:27;36.00;22.00
27492;DHT22;14927;51.210;6.838;2022-09-01T13:54:12;36.30;21.20
27492;DHT22;14927;51.210;6.838;2022-09-01T13:56:57;36.60;21.50
27492;DHT22;14927;51.210;6.838;2022-09-01T13:59:42;37.00;21.50
27492;DHT22;14927;51.210;6.838;2022-09-01T14:02:27;37.20;20.80
27492;DHT22;14927;51.210;6.838;2022-09-01T14:05:12;37.40;20.50
27492;DHT22;14927;51.210;6.838;2022-09-01T14:07:58;37.50;20.20
27492;DHT22;14927;51.210;6.838;2022-09-01T14:10:47;37.60;20.00
27492;DHT22;14927;51.210;6.838;2022-09-01T14:13:33;37.60;19.60
27492;DHT22;14927;51.210;6.838;2022-09-01T14:16:18;37.50;19.70
27492;DHT22;14927;51.210;6.838;2022-09-01T14:19:03;37.40;19.90
27492;DHT22;14927;51.210;6.838;2022-09-01T14:21:48;37.20;19.70
27492;DHT22;14927;51.210;6.838;2022-09-01T14:24:33;37.00;19.70
27492;DHT22;14927;51.210;6.838;2022-09-01T14:27:19;36.90;19.80
27492;DHT22;14927;51.210;6.838;2022-09-01T14:30:09;36.70;19.90
27492;DHT22;14927;51.210;6.838;2022-09-01T14:32:56;36.50;19.80
27492;DHT22;14927;51.210;6.838;2022-09-01T14:35:46;36.40;20.10
27492;DHT22;14927;51.210;6.838;2022-09-01T14:38:32;36.30;20.20
27492;DHT22;14927;51.210;6.838;2022-09-01T14:41:20;36.10;20.10
27492;DHT22;14927;51.210;6.838;2022-09-01T14:44:06;35.90;20.20
27492;DHT22;14927;51.210;6.838;2022-09-01T14:46:51;35.80;23.10
27492;DHT22;14927;51.210;6.838;2022-09-01T14:49:37;35.60;21.50
27492;DHT22;14927;51.210;6.838;2022-09-01T14:52:21;35.20;20.90
27492;DHT22;14927;51.210;6.838;2022-09-01T14:55:06;35.00;20.80
27492;DHT22;14927;51.210;6.838;2022-09-01T14:57:51;34.70;20.90
27492;DHT22;14927;51.210;6.838;2022-09-01T15:00:37;34.50;21.00
27492;DHT22;14927;51.210;6.838;2022-09-01T15:03:25;34.30;21.00
27492;DHT22;14927;51.210;6.838;2022-09-01T15:06:14;34.20;21.20
27492;DHT22;14927;51.210;6.838;2022-09-01T15:09:00;34.00;21.30
27492;DHT22;14927;51.210;6.838;2022-09-01T15:11:46;33.90;21.50
27492;DHT22;14927;51.210;6.838;2022-09-01T15:14:31;33.80;21.70
27492;DHT22;14927;51.210;6.838;2022-09-01T15:17:16;33.70;21.90
27492;DHT22;14927;51.210;6.838;2022-09-01T15:20:03;33.60;21.80
27492;DHT22;14927;51.210;6.838;2022-09-01T15:23:07;33.80;22.00
27492;DHT22;14927;51.210;6.838;2022-09-01T15:25:53;33.40;22.00
27492;DHT22;14927;51.210;6.838;2022-09-01T15:28:39;33.30;22.40
27492;DHT22;14927;51.210;6.838;2022-09-01T15:31:25;33.20;22.40
27492;DHT22;14927;51.210;6.838;2022-09-01T15:34:15;33.20;22.40
27492;DHT22;14927;51.210;6.838;2022-09-01T15:37:01;33.10;22.50
27492;DHT22;14927;51.210;6.838;2022-09-01T15:39:46;33.00;22.70
27492;DHT22;14927;51.210;6.838;2022-09-01T15:42:34;33.00;23.40
27492;DHT22;14927;51.210;6.838;2022-09-01T15:45:21;32.90;22.90
27492;DHT22;14927;51.210;6.838;2022-09-01T15:48:06;32.90;23.00
27492;DHT22;14927;51.210;6.838;2022-09-01T15:50:51;32.80;22.80
27492;DHT22;14927;51.210;6.838;2022-09-01T15:53:37;32.70;23.00
27492;DHT22;14927;51.210;6.838;2022-09-01T15:56:27;32.70;23.00
27492;DHT22;14927;51.210;6.838;2022-09-01T15:59:22;32.40;23.00
27492;DHT22;14927;51.210;6.838;2022-09-01T16:02:08;32.60;23.30
27492;DHT22;14927;51.210;6.838;2022-09-01T16:05:03;32.50;23.20
27492;DHT22;14927;51.210;6.838;2022-09-01T16:07:50;32.50;23.40
27492;DHT22;14927;51.210;6.838;2022-09-01T16:10:44;32.50;23.50
27492;DHT22;14927;51.210;6.838;2022-09-01T16:14:07;32.50;23.50
27492;DHT22;14927;51.210;6.838;2022-09-01T16:17:04;32.50;23.70
27492;DHT22;14927;51.210;6.838;2022-09-01T16:20:00;32.30;23.30
27492;DHT22;14927;51.210;6.838;2022-09-01T16:25:41;32.20;23.40
27492;DHT22;14927;51.210;6.838;2022-09-01T16:28:33;32.10;23.50
27492;DHT22;14927;51.210;6.838;2022-09-01T16:31:23;32.00;23.40
27492;DHT22;14927;51.210;6.838;2022-09-01T16:34:14;32.00;23.40
27492;DHT22;14927;51.210;6.838;2022-09-01T16:46:34;31.70;23.70
27492;DHT22;14927;51.210;6.838;2022-09-01T16:56:13;31.50;23.90
27492;DHT22;14927;51.210;6.838;2022-09-01T16:59:39;31.40;24.20
27492;DHT22;14927;51.210;6.838;2022-09-01T17:02:57;31.30;24.30
27492;DHT22;14927;51.210;6.838;2022-09-01T17:05:56;31.30;25.20
27492;DHT22;14927;51.210;6.838;2022-09-01T17:12:39;31.10;25.20
27492;DHT22;14927;51.210;6.838;2022-09-01T17:15:30;31.00;25.00
27492;DHT22;14927;51.210;6.838;2022-09-01T17:18:49;30.90;25.20
27492;DHT22;14927;51.210;6.838;2022-09-01T17:21:45;30.80;25.60
27492;DHT22;14927;51.210;6.838;2022-09-01T17:27:53;30.70;25.50
27492;DHT22;14927;51.210;6.838;2022-09-01T17:31:10;30.60;25.60
27492;DHT22;14927;51.210;6.838;2022-09-01T17:41:15;30.30;25.40
27492;DHT22;14927;51.210;6.838;2022-09-01T17:44:27;30.30;25.60
27492;DHT22;14927;51.210;6.838;2022-09-01T17:48:20;30.20;25.70
27492;DHT22;14927;51.210;6.838;2022-09-01T18:00:39;29.80;25.90
27492;DHT22;14927;51.210;6.838;2022-09-01T18:10:17;29.60;26.30
27492;DHT22;14927;51.210;6.838;2022-09-01T18:17:23;29.40;26.60
27492;DHT22;14927;51.210;6.838;2022-09-01T18:20:18;29.30;27.10
27492;DHT22;14927;51.210;6.838;2022-09-01T18:23:17;29.20;27.20
27492;DHT22;14927;51.210;6.838;2022-09-01T18:26:19;29.10;27.50
27492;DHT22;14927;51.210;6.838;2022-09-01T18:29:15;28.90;27.50
27492;DHT22;14927;51.210;6.838;2022-09-01T18:32:34;28.90;27.40
27492;DHT22;14927;51.210;6.838;2022-09-01T19:15:36;27.80;28.20
27492;DHT22;14927;51.210;6.838;2022-09-01T19:21:36;27.70;28.50
27492;DHT22;14927;51.210;6.838;2022-09-01T19:27:30;27.50;28.60
27492;DHT22;14927;51.210;6.838;2022-09-01T19:30:16;27.60;28.90
27492;DHT22;14927;51.210;6.838;2022-09-01T19:33:03;27.40;28.90
27492;DHT22;14927;51.210;6.838;2022-09-01T19:35:57;27.30;28.90
27492;DHT22;14927;51.210;6.838;2022-09-01T19:38:45;27.30;29.00
27492;DHT22;14927;51.210;6.838;2022-09-01T19:41:38;27.20;29.20
27492;DHT22;14927;51.210;6.838;2022-09-01T19:49:15;27.10;29.30
27492;DHT22;14927;51.210;6.838;2022-09-01T19:51:47;27.30;29.40
27492;DHT22;14927;51.210;6.838;2022-09-01T19:54:49;27.10;29.50
27492;DHT22;14927;51.210;6.838;2022-09-01T19:57:49;27.00;29.40
27492;DHT22;14927;51.210;6.838;2022-09-01T20:00:52;26.90;29.70
27492;DHT22;14927;51.210;6.838;2022-09-01T20:03:48;26.90;29.80
27492;DHT22;14927;51.210;6.838;2022-09-01T20:06:36;26.80;29.90
27492;DHT22;14927;51.210;6.838;2022-09-01T20:09:55;26.70;30.00
27492;DHT22;14927;51.210;6.838;2022-09-01T20:13:08;26.70;30.00
27492;DHT22;14927;51.210;6.838;2022-09-01T20:16:15;26.60;30.00
27492;DHT22;14927;51.210;6.838;2022-09-01T20:26:01;26.40;30.50
27492;DHT22;14927;51.210;6.838;2022-09-01T20:29:05;26.30;30.30
27492;DHT22;14927;51.210;6.838;2022-09-01T20:31:54;26.30;30.60
27492;DHT22;14927;51.210;6.838;2022-09-01T20:34:45;26.20;30.70
27492;DHT22;14927;51.210;6.838;2022-09-01T20:37:58;26.20;30.80
27492;DHT22;14927;51.210;6.838;2022-09-01T20:40:46;26.10;30.80